sensor_id;sensor_type;location;lat;lon;timestamp;temperature;humidity
17128;DHT22;8679;50.842;4.322;2023-05-31T00:01:24;14.20;99.90
17128;DHT22;8679;50.842;4.322;2023-05-31T00:03:50;14.10;99.90
17128;DHT22;8679;50.842;4.322;2023-05-31T00:06:16;14.10;99.90
17128;DHT22;8679;50.842;4.322;2023-05-31T00:08:42;14.20;99.90
17128;DHT22;8679;50.842;4.322;2023-05-31T00:11:08;14.10;99.90
17128;DHT22;8679;50.842;4.322;2023-05-31T00:13:33;14.10;99.90
17128;DHT22;8679;50.842;4.322;2023-05-31T00:15:59;14.10;99.90
17128;DHT22;8679;50.842;4.322;2023-05-31T00:18:25;14.10;99.90
17128;DHT22;8679;50.842;4.322;2023-05-31T00:20:51;14.00;99.90
17128;DHT22;8679;50.842;4.322;2023-05-31T00:23:16;14.00;99.90
17128;DHT22;8679;50.842;4.322;2023-05-31T00:25:42;14.00;99.90
17128;DHT22;8679;50.842;4.322;2023-05-31T00:28:08;14.00;99.90
17128;DHT22;8679;50.842;4.322;2023-05-31T00:30:33;14.00;99.90
17128;DHT22;8679;50.842;4.322;2023-05-31T00:32:59;14.00;99.90
17128;DHT22;8679;50.842;4.322;2023-05-31T00:35:25;13.90;99.90
17128;DHT22;8679;50.842;4.322;2023-05-31T00:37:50;14.00;99.90
17128;DHT22;8679;50.842;4.322;2023-05-31T00:40:16;13.90;99.90
17128;DHT22;8679;50.842;4.322;2023-05-31T00:42:42;13.90;99.90
17128;DHT22;8679;50.842;4.322;2023-05-31T00:45:07;13.90;99.90
17128;DHT22;8679;50.842;4.322;2023-05-31T00:47:35;13.90;99.90
17128;DHT22;8679;50.842;4.322;2023-05-31T00:50:01;13.90;99.90
17128;DHT22;8679;50.842;4.322;2023-05-31T00:52:27;13.90;99.90
17128;DHT22;8679;50.842;4.322;2023-05-31T00:54:53;13.80;99.90
17128;DHT22;8679;50.842;4.322;2023-05-31T00:57:19;13.80;99.90
17128;DHT22;8679;50.842;4.322;2023-05-31T00:59:45;13.80;99.90
17128;DHT22;8679;50.842;4.322;2023-05-31T01:02:11;13.80;99.90
17128;DHT22;8679;50.842;4.322;2023-05-31T01:04:37;13.80;99.90
17128;DHT22;8679;50.842;4.322;2023-05-31T01:07:03;13.70;99.90
17128;DHT22;8679;50.842;4.322;2023-05-31T01:09:29;13.70;99.90
17128;DHT22;8679;50.842;4.322;2023-05-31T01:20:08;13.60;99.90
17128;DHT22;8679;50.842;4.322;2023-05-31T01:22:55;13.60;99.90
17128;DHT22;8679;50.842;4.322;2023-05-31T01:28:06;13.50;99.90
17128;DHT22;8679;50.842;4.322;2023-05-31T01:30:38;13.40;99.90
17128;DHT22;8679;50.842;4.322;2023-05-31T01:33:08;13.40;99.90
17128;DHT22;8679;50.842;4.322;2023-05-31T01:35:34;13.40;99.90
17128;DHT22;8679;50.842;4.322;2023-05-31T01:37:59;13.40;99.90
17128;DHT22;8679;50.842;4.322;2023-05-31T01:40:25;13.40;99.90
17128;DHT22;8679;50.842;4.322;2023-05-31T01:42:52;13.30;99.90
17128;DHT22;8679;50.842;4.322;2023-05-31T01:45:18;13.20;99.90
17128;DHT22;8679;50.842;4.322;2023-05-31T01:47:46;13.20;99.90
17128;DHT22;8679;50.842;4.322;2023-05-31T01:50:13;13.20;99.90
17128;DHT22;8679;50.842;4.322;2023-05-31T01:52:39;13.20;99.90
17128;DHT22;8679;50.842;4.322;2023-05-31T01:55:06;13.10;99.90
17128;DHT22;8679;50.842;4.322;2023-05-31T01:57:33;13.10;99.90
17128;DHT22;8679;50.842;4.322;2023-05-31T02:00:00;13.10;99.90
17128;DHT22;8679;50.842;4.322;2023-05-31T02:02:27;13.10;99.90
17128;DHT22;8679;50.842;4.322;2023-05-31T02:05:07;13.00;99.90
17128;DHT22;8679;50.842;4.322;2023-05-31T02:07:34;13.00;99.90
17128;DHT22;8679;50.842;4.322;2023-05-31T02:10:01;13.00;99.90
17128;DHT22;8679;50.842;4.322;2023-05-31T02:12:28;13.00;99.90
17128;DHT22;8679;50.842;4.322;2023-05-31T02:14:53;13.00;99.90
17128;DHT22;8679;50.842;4.322;2023-05-31T02:17:19;12.90;99.90
17128;DHT22;8679;50.842;4.322;2023-05-31T02:19:50;12.90;99.90
17128;DHT22;8679;50.842;4.322;2023-05-31T02:22:16;12.90;99.90
17128;DHT22;8679;50.842;4.322;2023-05-31T02:24:41;12.90;99.90
17128;DHT22;8679;50.842;4.322;2023-05-31T02:27:07;12.80;99.90
17128;DHT22;8679;50.842;4.322;2023-05-31T02:29:33;12.80;99.90
17128;DHT22;8679;50.842;4.322;2023-05-31T02:31:58;12.80;99.90
17128;DHT22;8679;50.842;4.322;2023-05-31T02:34:24;12.80;99.90
17128;DHT22;8679;50.842;4.322;2023-05-31T02:36:51;12.80;99.90
17128;DHT22;8679;50.842;4.322;2023-05-31T02:39:18;12.80;99.90
17128;DHT22;8679;50.842;4.322;2023-05-31T02:41:44;12.80;99.90
17128;DHT22;8679;50.842;4.322;2023-05-31T02:44:09;12.70;99.90
17128;DHT22;8679;50.842;4.322;2023-05-31T02:46:35;12.70;99.90
17128;DHT22;8679;50.842;4.322;2023-05-31T02:49:01;12.70;99.90
17128;DHT22;8679;50.842;4.322;2023-05-31T02:51:27;12.70;99.90
17128;DHT22;8679;50.842;4.322;2023-05-31T02:53:53;12.70;99.90
17128;DHT22;8679;50.842;4.322;2023-05-31T02:56:19;12.70;99.90
17128;DHT22;8679;50.842;4.322;2023-05-31T02:58:46;12.60;99.90
17128;DHT22;8679;50.842;4.322;2023-05-31T03:01:12;12.60;99.90
17128;DHT22;8679;50.842;4.322;2023-05-31T03:03:39;12.60;99.90
17128;DHT22;8679;50.842;4.322;2023-05-31T03:06:05;12.60;99.90
17128;DHT22;8679;50.842;4.322;2023-05-31T03:08:31;12.60;99.90
17128;DHT22;8679;50.842;4.322;2023-05-31T03:10:57;12.50;99.90
17128;DHT22;8679;50.842;4.322;2023-05-31T03:13:23;12.50;99.90
17128;DHT22;8679;50.842;4.322;2023-05-31T03:15:49;12.50;99.90
17128;DHT22;8679;50.842;4.322;2023-05-31T03:18:15;12.50;99.90
17128;DHT22;8679;50.842;4.322;2023-05-31T03:20:40;12.50;99.90
17128;DHT22;8679;50.842;4.322;2023-05-31T03:23:06;12.50;99.90
17128;DHT22;8679;50.842;4.322;2023-05-31T03:25:33;12.50;99.90
17128;DHT22;8679;50.842;4.322;2023-05-31T03:27:58;12.40;99.90
17128;DHT22;8679;50.842;4.322;2023-05-31T03:30:24;12.40;99.90
17128;DHT22;8679;50.842;4.322;2023-05-31T03:32:50;12.40;99.90
17128;DHT22;8679;50.842;4.322;2023-05-31T03:35:16;12.30;99.90
17128;DHT22;8679;50.842;4.322;2023-05-31T03:37:43;12.30;99.90
17128;DHT22;8679;50.842;4.322;2023-05-31T03:40:09;12.30;99.90
17128;DHT22;8679;50.842;4.322;2023-05-31T03:42:35;12.30;99.90
17128;DHT22;8679;50.842;4.322;2023-05-31T03:45:01;12.30;99.90
17128;DHT22;8679;50.842;4.322;2023-05-31T03:47:27;12.30;99.90
17128;DHT22;8679;50.842;4.322;2023-05-31T03:49:53;12.30;99.90
17128;DHT22;8679;50.842;4.322;2023-05-31T03:52:18;12.30;99.90
17128;DHT22;8679;50.842;4.322;2023-05-31T03:54:45;12.30;99.90
17128;DHT22;8679;50.842;4.322;2023-05-31T03:57:12;12.30;99.90
17128;DHT22;8679;50.842;4.322;2023-05-31T03:59:38;12.20;99.90
17128;DHT22;8679;50.842;4.322;2023-05-31T04:02:04;12.30;99.90
17128;DHT22;8679;50.842;4.322;2023-05-31T04:04:29;12.30;99.90
17128;DHT22;8679;50.842;4.322;2023-05-31T04:06:55;12.30;99.90
17128;DHT22;8679;50.842;4.322;2023-05-31T04:09:21;12.30;99.90
17128;DHT22;8679;50.842;4.322;2023-05-31T04:11:49;12.30;99.90
17128;DHT22;8679;50.842;4.322;2023-05-31T04:14:14;12.30;99.90
17128;DHT22;8679;50.842;4.322;2023-05-31T04:16:40;12.30;99.90
17128;DHT22;8679;50.842;4.322;2023-05-31T04:19:06;12.30;99.90
17128;DHT22;8679;50.842;4.322;2023-05-31T04:21:31;12.30;99.90
17128;DHT22;8679;50.842;4.322;2023-05-31T04:23:58;12.30;99.90
17128;DHT22;8679;50.842;4.322;2023-05-31T04:26:24;12.30;99.90
17128;DHT22;8679;50.842;4.322;2023-05-31T04:28:51;12.30;99.90
17128;DHT22;8679;50.842;4.322;2023-05-31T04:31:20;12.30;99.90
17128;DHT22;8679;50.842;4.322;2023-05-31T04:33:50;12.30;99.90
17128;DHT22;8679;50.842;4.322;2023-05-31T04:36:16;12.40;99.90
17128;DHT22;8679;50.842;4.322;2023-05-31T04:38:44;12.40;99.90
17128;DHT22;8679;50.842;4.322;2023-05-31T04:41:09;12.40;99.90
17128;DHT22;8679;50.842;4.322;2023-05-31T04:43:35;12.50;99.90
17128;DHT22;8679;50.842;4.322;2023-05-31T04:46:05;12.50;99.90
17128;DHT22;8679;50.842;4.322;2023-05-31T04:48:31;12.50;99.90
17128;DHT22;8679;50.842;4.322;2023-05-31T04:50:57;12.50;99.90
17128;DHT22;8679;50.842;4.322;2023-05-31T04:53:24;12.50;99.90
17128;DHT22;8679;50.842;4.322;2023-05-31T04:55:50;12.60;99.90
17128;DHT22;8679;50.842;4.322;2023-05-31T04:58:17;12.60;99.90
17128;DHT22;8679;50.842;4.322;2023-05-31T05:00:45;12.60;99.90
17128;DHT22;8679;50.842;4.322;2023-05-31T05:03:11;12.60;99.90
17128;DHT22;8679;50.842;4.322;2023-05-31T05:05:37;12.70;99.90
17128;DHT22;8679;50.842;4.322;2023-05-31T05:08:03;12.70;99.90
17128;DHT22;8679;50.842;4.322;2023-05-31T05:10:29;12.70;99.90
17128;DHT22;8679;50.842;4.322;2023-05-31T05:12:54;12.70;99.90
17128;DHT22;8679;50.842;4.322;2023-05-31T05:15:20;12.80;99.90
17128;DHT22;8679;50.842;4.322;2023-05-31T05:17:45;12.80;99.90
17128;DHT22;8679;50.842;4.322;2023-05-31T05:20:12;12.90;99.90
17128;DHT22;8679;50.842;4.322;2023-05-31T05:22:38;12.90;99.90
17128;DHT22;8679;50.842;4.322;2023-05-31T05:25:04;12.90;99.90
17128;DHT22;8679;50.842;4.322;2023-05-31T05:27:30;13.00;99.90
17128;DHT22;8679;50.842;4.322;2023-05-31T05:29:55;13.00;99.90
17128;DHT22;8679;50.842;4.322;2023-05-31T05:32:21;13.00;99.90
17128;DHT22;8679;50.842;4.322;2023-05-31T05:34:47;13.10;99.90
17128;DHT22;8679;50.842;4.322;2023-05-31T05:37:12;13.10;99.90
17128;DHT22;8679;50.842;4.322;2023-05-31T05:39:38;13.20;99.90
17128;DHT22;8679;50.842;4.322;2023-05-31T05:42:04;13.20;99.90
17128;DHT22;8679;50.842;4.322;2023-05-31T05:44:29;13.30;99.90
17128;DHT22;8679;50.842;4.322;2023-05-31T05:46:55;13.40;99.90
17128;DHT22;8679;50.842;4.322;2023-05-31T05:49:21;13.40;99.90
17128;DHT22;8679;50.842;4.322;2023-05-31T05:51:47;13.50;99.90
17128;DHT22;8679;50.842;4.322;2023-05-31T05:54:13;13.50;99.90
17128;DHT22;8679;50.842;4.322;2023-05-31T05:56:38;13.60;99.90
17128;DHT22;8679;50.842;4.322;2023-05-31T05:59:04;13.60;99.90
17128;DHT22;8679;50.842;4.322;2023-05-31T06:01:30;13.70;99.90
17128;DHT22;8679;50.842;4.322;2023-05-31T06:03:56;13.70;99.90
17128;DHT22;8679;50.842;4.322;2023-05-31T06:06:21;13.80;99.90
17128;DHT22;8679;50.842;4.322;2023-05-31T06:08:47;13.80;99.90
17128;DHT22;8679;50.842;4.322;2023-05-31T06:11:13;13.90;99.90
17128;DHT22;8679;50.842;4.322;2023-05-31T06:13:44;13.90;99.90
17128;DHT22;8679;50.842;4.322;2023-05-31T06:16:10;14.00;99.90
17128;DHT22;8679;50.842;4.322;2023-05-31T06:18:35;14.10;99.90
17128;DHT22;8679;50.842;4.322;2023-05-31T06:21:01;14.20;99.90
17128;DHT22;8679;50.842;4.322;2023-05-31T06:23:28;14.20;99.90
17128;DHT22;8679;50.842;4.322;2023-05-31T06:25:54;14.30;99.90
17128;DHT22;8679;50.842;4.322;2023-05-31T06:28:20;14.30;99.90
17128;DHT22;8679;50.842;4.322;2023-05-31T06:30:45;14.40;99.90
17128;DHT22;8679;50.842;4.322;2023-05-31T06:33:12;14.40;99.90
17128;DHT22;8679;50.842;4.322;2023-05-31T06:35:38;14.50;99.90
17128;DHT22;8679;50.842;4.322;2023-05-31T06:38:05;14.60;99.90
17128;DHT22;8679;50.842;4.322;2023-05-31T06:40:31;14.60;99.90
17128;DHT22;8679;50.842;4.322;2023-05-31T06:42:57;14.70;99.90
17128;DHT22;8679;50.842;4.322;2023-05-31T06:45:24;14.70;99.90
17128;DHT22;8679;50.842;4.322;2023-05-31T06:47:49;14.80;99.90
17128;DHT22;8679;50.842;4.322;2023-05-31T06:50:15;14.90;99.90
17128;DHT22;8679;50.842;4.322;2023-05-31T06:52:41;14.90;99.90
17128;DHT22;8679;50.842;4.322;2023-05-31T06:55:08;15.00;99.90
17128;DHT22;8679;50.842;4.322;2023-05-31T06:57:33;15.10;99.90
17128;DHT22;8679;50.842;4.322;2023-05-31T06:59:59;15.20;99.90
17128;DHT22;8679;50.842;4.322;2023-05-31T07:02:25;15.30;99.90
17128;DHT22;8679;50.842;4.322;2023-05-31T07:04:52;15.40;99.90
17128;DHT22;8679;50.842;4.322;2023-05-31T07:07:18;15.50;99.90
17128;DHT22;8679;50.842;4.322;2023-05-31T07:09:43;15.60;99.90
17128;DHT22;8679;50.842;4.322;2023-05-31T07:12:09;15.70;99.90
17128;DHT22;8679;50.842;4.322;2023-05-31T07:14:36;15.80;99.90
17128;DHT22;8679;50.842;4.322;2023-05-31T07:17:02;15.90;99.90
17128;DHT22;8679;50.842;4.322;2023-05-31T07:19:28;15.90;99.90
17128;DHT22;8679;50.842;4.322;2023-05-31T07:21:54;16.00;99.90
17128;DHT22;8679;50.842;4.322;2023-05-31T07:24:20;16.10;99.90
17128;DHT22;8679;50.842;4.322;2023-05-31T07:26:45;16.10;99.90
17128;DHT22;8679;50.842;4.322;2023-05-31T07:29:11;16.10;99.90
17128;DHT22;8679;50.842;4.322;2023-05-31T07:31:37;16.20;99.90
17128;DHT22;8679;50.842;4.322;2023-05-31T07:34:03;16.30;99.90
17128;DHT22;8679;50.842;4.322;2023-05-31T07:36:29;16.30;99.90
17128;DHT22;8679;50.842;4.322;2023-05-31T07:38:55;16.40;99.90
17128;DHT22;8679;50.842;4.322;2023-05-31T07:41:21;16.50;99.90
17128;DHT22;8679;50.842;4.322;2023-05-31T07:43:46;16.60;99.90
17128;DHT22;8679;50.842;4.322;2023-05-31T07:46:12;16.60;99.90
17128;DHT22;8679;50.842;4.322;2023-05-31T07:48:38;16.70;99.90
17128;DHT22;8679;50.842;4.322;2023-05-31T07:51:04;16.80;99.90
17128;DHT22;8679;50.842;4.322;2023-05-31T07:53:30;16.90;99.90
17128;DHT22;8679;50.842;4.322;2023-05-31T07:55:56;17.10;99.90
17128;DHT22;8679;50.842;4.322;2023-05-31T07:58:21;17.20;99.90
17128;DHT22;8679;50.842;4.322;2023-05-31T08:00:47;17.20;99.90
17128;DHT22;8679;50.842;4.322;2023-05-31T08:03:15;17.30;99.90
17128;DHT22;8679;50.842;4.322;2023-05-31T08:05:41;17.40;99.90
17128;DHT22;8679;50.842;4.322;2023-05-31T08:08:06;17.50;99.90
17128;DHT22;8679;50.842;4.322;2023-05-31T08:10:32;17.60;99.90
17128;DHT22;8679;50.842;4.322;2023-05-31T08:12:58;17.70;99.90
17128;DHT22;8679;50.842;4.322;2023-05-31T08:15:23;17.80;99.90
17128;DHT22;8679;50.842;4.322;2023-05-31T08:17:49;17.90;99.90
17128;DHT22;8679;50.842;4.322;2023-05-31T08:20:16;18.00;99.90
17128;DHT22;8679;50.842;4.322;2023-05-31T08:22:43;18.10;99.90
17128;DHT22;8679;50.842;4.322;2023-05-31T08:25:10;18.10;99.90
17128;DHT22;8679;50.842;4.322;2023-05-31T08:27:38;18.20;99.90
17128;DHT22;8679;50.842;4.322;2023-05-31T08:30:06;18.20;99.90
17128;DHT22;8679;50.842;4.322;2023-05-31T08:32:31;18.30;99.90
17128;DHT22;8679;50.842;4.322;2023-05-31T08:34:57;18.30;99.90
17128;DHT22;8679;50.842;4.322;2023-05-31T08:37:22;18.40;99.90
17128;DHT22;8679;50.842;4.322;2023-05-31T08:39:48;18.40;99.90
17128;DHT22;8679;50.842;4.322;2023-05-31T08:42:24;18.50;99.90
17128;DHT22;8679;50.842;4.322;2023-05-31T08:44:50;18.50;99.90
17128;DHT22;8679;50.842;4.322;2023-05-31T08:47:42;18.70;99.90
17128;DHT22;8679;50.842;4.322;2023-05-31T08:50:10;18.80;99.90
17128;DHT22;8679;50.842;4.322;2023-05-31T08:52:38;18.90;99.90
17128;DHT22;8679;50.842;4.322;2023-05-31T08:55:04;19.00;99.90
17128;DHT22;8679;50.842;4.322;2023-05-31T08:57:31;19.00;99.90
17128;DHT22;8679;50.842;4.322;2023-05-31T08:59:57;19.00;99.90
17128;DHT22;8679;50.842;4.322;2023-05-31T09:02:24;19.10;99.90
17128;DHT22;8679;50.842;4.322;2023-05-31T09:04:50;19.20;99.90
17128;DHT22;8679;50.842;4.322;2023-05-31T09:07:16;19.20;99.90
17128;DHT22;8679;50.842;4.322;2023-05-31T09:09:42;19.40;99.90
17128;DHT22;8679;50.842;4.322;2023-05-31T09:12:07;19.50;99.90
17128;DHT22;8679;50.842;4.322;2023-05-31T09:14:33;19.50;99.90
17128;DHT22;8679;50.842;4.322;2023-05-31T09:17:00;19.60;99.90
17128;DHT22;8679;50.842;4.322;2023-05-31T09:19:26;19.60;99.90
17128;DHT22;8679;50.842;4.322;2023-05-31T09:21:52;19.70;99.90
17128;DHT22;8679;50.842;4.322;2023-05-31T09:24:18;19.80;99.90
17128;DHT22;8679;50.842;4.322;2023-05-31T09:26:52;19.80;99.90
17128;DHT22;8679;50.842;4.322;2023-05-31T09:29:18;19.90;99.90
17128;DHT22;8679;50.842;4.322;2023-05-31T09:31:45;19.90;99.90
17128;DHT22;8679;50.842;4.322;2023-05-31T09:34:25;20.00;99.90
17128;DHT22;8679;50.842;4.322;2023-05-31T09:37:00;20.10;99.90
17128;DHT22;8679;50.842;4.322;2023-05-31T09:39:26;20.20;99.90
17128;DHT22;8679;50.842;4.322;2023-05-31T09:41:52;20.20;99.90
17128;DHT22;8679;50.842;4.322;2023-05-31T09:44:18;20.30;99.90
17128;DHT22;8679;50.842;4.322;2023-05-31T09:46:47;20.40;99.90
17128;DHT22;8679;50.842;4.322;2023-05-31T09:49:13;20.50;99.90
17128;DHT22;8679;50.842;4.322;2023-05-31T09:51:39;20.50;99.90
17128;DHT22;8679;50.842;4.322;2023-05-31T09:54:13;20.60;99.90
17128;DHT22;8679;50.842;4.322;2023-05-31T09:56:40;20.60;99.90
17128;DHT22;8679;50.842;4.322;2023-05-31T09:59:07;20.70;99.90
17128;DHT22;8679;50.842;4.322;2023-05-31T10:01:33;20.80;99.90
17128;DHT22;8679;50.842;4.322;2023-05-31T10:03:59;20.90;99.90
17128;DHT22;8679;50.842;4.322;2023-05-31T10:06:26;21.00;99.90
17128;DHT22;8679;50.842;4.322;2023-05-31T10:08:52;21.10;99.90
17128;DHT22;8679;50.842;4.322;2023-05-31T10:11:24;21.20;99.90
17128;DHT22;8679;50.842;4.322;2023-05-31T10:13:56;21.30;99.90
17128;DHT22;8679;50.842;4.322;2023-05-31T10:16:26;21.30;99.90
17128;DHT22;8679;50.842;4.322;2023-05-31T10:18:54;21.40;99.90
17128;DHT22;8679;50.842;4.322;2023-05-31T10:21:24;21.40;99.90
17128;DHT22;8679;50.842;4.322;2023-05-31T10:24:02;21.40;99.90
17128;DHT22;8679;50.842;4.322;2023-05-31T10:26:50;21.60;99.90
17128;DHT22;8679;50.842;4.322;2023-05-31T10:29:23;21.70;99.90
17128;DHT22;8679;50.842;4.322;2023-05-31T10:31:50;21.80;99.90
17128;DHT22;8679;50.842;4.322;2023-05-31T10:36:47;21.90;99.90
17128;DHT22;8679;50.842;4.322;2023-05-31T10:39:23;22.10;99.90
17128;DHT22;8679;50.842;4.322;2023-05-31T10:41:59;22.20;99.90
17128;DHT22;8679;50.842;4.322;2023-05-31T10:44:33;22.30;99.90
17128;DHT22;8679;50.842;4.322;2023-05-31T10:47:04;22.40;99.90
17128;DHT22;8679;50.842;4.322;2023-05-31T10:49:34;22.50;99.90
17128;DHT22;8679;50.842;4.322;2023-05-31T10:52:06;22.60;99.90
17128;DHT22;8679;50.842;4.322;2023-05-31T10:54:32;22.80;99.90
17128;DHT22;8679;50.842;4.322;2023-05-31T10:56:58;22.80;99.90
17128;DHT22;8679;50.842;4.322;2023-05-31T10:59:26;22.90;99.90
17128;DHT22;8679;50.842;4.322;2023-05-31T11:01:52;23.00;99.90
17128;DHT22;8679;50.842;4.322;2023-05-31T11:04:24;23.10;99.90
17128;DHT22;8679;50.842;4.322;2023-05-31T11:06:54;23.20;99.90
17128;DHT22;8679;50.842;4.322;2023-05-31T11:09:38;23.40;99.90
17128;DHT22;8679;50.842;4.322;2023-05-31T11:12:04;23.50;99.90
17128;DHT22;8679;50.842;4.322;2023-05-31T11:14:31;23.60;99.90
17128;DHT22;8679;50.842;4.322;2023-05-31T11:19:32;23.60;99.90
17128;DHT22;8679;50.842;4.322;2023-05-31T11:22:08;23.70;99.90
17128;DHT22;8679;50.842;4.322;2023-05-31T11:27:13;23.80;99.90
17128;DHT22;8679;50.842;4.322;2023-05-31T11:32:20;24.00;99.90
17128;DHT22;8679;50.842;4.322;2023-05-31T11:34:49;24.20;99.90
17128;DHT22;8679;50.842;4.322;2023-05-31T11:37:16;24.30;99.90
17128;DHT22;8679;50.842;4.322;2023-05-31T11:39:45;24.40;99.90
17128;DHT22;8679;50.842;4.322;2023-05-31T11:42:11;24.40;99.90
17128;DHT22;8679;50.842;4.322;2023-05-31T11:44:44;24.50;99.90
17128;DHT22;8679;50.842;4.322;2023-05-31T11:47:21;24.60;99.90
17128;DHT22;8679;50.842;4.322;2023-05-31T11:54:46;24.60;99.90
17128;DHT22;8679;50.842;4.322;2023-05-31T11:57:14;25.30;99.90
17128;DHT22;8679;50.842;4.322;2023-05-31T11:59:40;25.40;98.40
17128;DHT22;8679;50.842;4.322;2023-05-31T12:02:08;25.60;96.00
17128;DHT22;8679;50.842;4.322;2023-05-31T12:04:39;25.70;95.70
17128;DHT22;8679;50.842;4.322;2023-05-31T12:07:06;25.90;95.20
17128;DHT22;8679;50.842;4.322;2023-05-31T12:09:33;25.80;93.10
17128;DHT22;8679;50.842;4.322;2023-05-31T12:11:59;25.90;93.30
17128;DHT22;8679;50.842;4.322;2023-05-31T12:14:26;26.10;94.10
17128;DHT22;8679;50.842;4.322;2023-05-31T12:16:53;26.30;92.00
17128;DHT22;8679;50.842;4.322;2023-05-31T12:19:19;26.30;90.40
17128;DHT22;8679;50.842;4.322;2023-05-31T12:21:45;26.50;90.00
17128;DHT22;8679;50.842;4.322;2023-05-31T12:24:12;26.60;88.10
17128;DHT22;8679;50.842;4.322;2023-05-31T12:26:38;26.80;87.00
17128;DHT22;8679;50.842;4.322;2023-05-31T12:29:04;26.90;82.50
17128;DHT22;8679;50.842;4.322;2023-05-31T12:31:30;27.00;78.20
17128;DHT22;8679;50.842;4.322;2023-05-31T12:36:26;27.60;78.30
17128;DHT22;8679;50.842;4.322;2023-05-31T12:38:58;27.90;73.90
17128;DHT22;8679;50.842;4.322;2023-05-31T12:41:25;28.20;67.60
17128;DHT22;8679;50.842;4.322;2023-05-31T12:43:54;28.50;67.20
17128;DHT22;8679;50.842;4.322;2023-05-31T12:46:19;28.90;62.20
17128;DHT22;8679;50.842;4.322;2023-05-31T12:48:48;29.10;59.00
17128;DHT22;8679;50.842;4.322;2023-05-31T12:51:20;29.20;57.60
17128;DHT22;8679;50.842;4.322;2023-05-31T12:53:46;29.70;60.40
17128;DHT22;8679;50.842;4.322;2023-05-31T12:56:12;30.00;56.30
17128;DHT22;8679;50.842;4.322;2023-05-31T12:58:38;30.10;50.90
17128;DHT22;8679;50.842;4.322;2023-05-31T13:01:03;30.50;51.30
17128;DHT22;8679;50.842;4.322;2023-05-31T13:03:29;30.80;46.50
17128;DHT22;8679;50.842;4.322;2023-05-31T13:05:54;31.20;44.70
17128;DHT22;8679;50.842;4.322;2023-05-31T13:08:20;31.30;42.20
17128;DHT22;8679;50.842;4.322;2023-05-31T13:10:46;31.60;41.80
17128;DHT22;8679;50.842;4.322;2023-05-31T13:13:12;31.80;36.60
17128;DHT22;8679;50.842;4.322;2023-05-31T13:15:37;32.00;33.70
17128;DHT22;8679;50.842;4.322;2023-05-31T13:18:03;32.10;30.10
17128;DHT22;8679;50.842;4.322;2023-05-31T13:20:29;32.30;32.40
17128;DHT22;8679;50.842;4.322;2023-05-31T13:22:55;32.60;29.50
17128;DHT22;8679;50.842;4.322;2023-05-31T13:25:20;33.00;28.30
17128;DHT22;8679;50.842;4.322;2023-05-31T13:27:46;33.40;25.60
17128;DHT22;8679;50.842;4.322;2023-05-31T13:30:12;33.60;25.00
17128;DHT22;8679;50.842;4.322;2023-05-31T13:32:38;33.60;23.30
17128;DHT22;8679;50.842;4.322;2023-05-31T13:35:04;33.00;21.70
17128;DHT22;8679;50.842;4.322;2023-05-31T13:37:30;33.20;23.00
17128;DHT22;8679;50.842;4.322;2023-05-31T13:39:56;33.20;22.70
17128;DHT22;8679;50.842;4.322;2023-05-31T13:42:23;33.60;21.70
17128;DHT22;8679;50.842;4.322;2023-05-31T13:44:48;33.60;20.60
17128;DHT22;8679;50.842;4.322;2023-05-31T13:47:14;33.90;19.90
17128;DHT22;8679;50.842;4.322;2023-05-31T13:49:40;34.10;19.60
17128;DHT22;8679;50.842;4.322;2023-05-31T13:52:06;34.40;18.30
17128;DHT22;8679;50.842;4.322;2023-05-31T13:54:33;34.50;17.50
17128;DHT22;8679;50.842;4.322;2023-05-31T13:56:58;34.50;17.50
17128;DHT22;8679;50.842;4.322;2023-05-31T13:59:24;34.60;18.00
17128;DHT22;8679;50.842;4.322;2023-05-31T14:01:50;34.40;16.00
17128;DHT22;8679;50.842;4.322;2023-05-31T14:04:16;34.70;16.50
17128;DHT22;8679;50.842;4.322;2023-05-31T14:06:45;35.00;17.10
17128;DHT22;8679;50.842;4.322;2023-05-31T14:09:11;34.90;15.70
17128;DHT22;8679;50.842;4.322;2023-05-31T14:11:37;35.00;14.90
17128;DHT22;8679;50.842;4.322;2023-05-31T14:14:03;35.00;12.40
17128;DHT22;8679;50.842;4.322;2023-05-31T14:16:28;35.20;13.30
17128;DHT22;8679;50.842;4.322;2023-05-31T14:18:54;35.40;13.30
17128;DHT22;8679;50.842;4.322;2023-05-31T14:21:20;35.70;13.20
17128;DHT22;8679;50.842;4.322;2023-05-31T14:23:45;35.60;11.10
17128;DHT22;8679;50.842;4.322;2023-05-31T14:26:11;35.60;10.90
17128;DHT22;8679;50.842;4.322;2023-05-31T14:28:36;35.60;11.10
17128;DHT22;8679;50.842;4.322;2023-05-31T14:31:02;35.90;9.80
17128;DHT22;8679;50.842;4.322;2023-05-31T14:33:28;35.80;10.30
17128;DHT22;8679;50.842;4.322;2023-05-31T14:35:53;35.90;9.70
17128;DHT22;8679;50.842;4.322;2023-05-31T14:38:19;36.20;7.70
17128;DHT22;8679;50.842;4.322;2023-05-31T14:40:45;36.70;8.30
17128;DHT22;8679;50.842;4.322;2023-05-31T14:43:10;36.90;7.50
17128;DHT22;8679;50.842;4.322;2023-05-31T14:45:36;37.20;6.20
17128;DHT22;8679;50.842;4.322;2023-05-31T14:48:02;37.60;6.30
17128;DHT22;8679;50.842;4.322;2023-05-31T14:50:27;37.90;5.20
17128;DHT22;8679;50.842;4.322;2023-05-31T16:20:34;38.20;3.00
17128;DHT22;8679;50.842;4.322;2023-05-31T16:23:00;39.70;1.00
17128;DHT22;8679;50.842;4.322;2023-05-31T16:25:25;39.70;1.00
17128;DHT22;8679;50.842;4.322;2023-05-31T16:27:51;39.60;1.00
17128;DHT22;8679;50.842;4.322;2023-05-31T16:30:17;39.80;1.00
17128;DHT22;8679;50.842;4.322;2023-05-31T16:32:43;39.60;1.00
17128;DHT22;8679;50.842;4.322;2023-05-31T16:35:09;39.80;1.00
17128;DHT22;8679;50.842;4.322;2023-05-31T16:37:35;39.80;1.00
17128;DHT22;8679;50.842;4.322;2023-05-31T16:40:00;40.20;1.00
17128;DHT22;8679;50.842;4.322;2023-05-31T16:42:26;40.40;1.00
17128;DHT22;8679;50.842;4.322;2023-05-31T16:44:52;40.10;1.00
17128;DHT22;8679;50.842;4.322;2023-05-31T16:47:19;39.50;1.00
17128;DHT22;8679;50.842;4.322;2023-05-31T16:54:37;39.00;1.00
17128;DHT22;8679;50.842;4.322;2023-05-31T16:57:03;36.50;1.00
17128;DHT22;8679;50.842;4.322;2023-05-31T16:59:28;36.20;1.00
17128;DHT22;8679;50.842;4.322;2023-05-31T17:01:54;36.00;1.00
17128;DHT22;8679;50.842;4.322;2023-05-31T17:04:20;36.20;1.00
17128;DHT22;8679;50.842;4.322;2023-05-31T17:06:46;36.80;1.00
17128;DHT22;8679;50.842;4.322;2023-05-31T17:09:12;37.40;1.00
17128;DHT22;8679;50.842;4.322;2023-05-31T17:11:38;38.10;1.00
17128;DHT22;8679;50.842;4.322;2023-05-31T17:14:04;38.60;1.00
17128;DHT22;8679;50.842;4.322;2023-05-31T17:16:30;39.10;1.00
17128;DHT22;8679;50.842;4.322;2023-05-31T17:18:56;39.10;1.00
17128;DHT22;8679;50.842;4.322;2023-05-31T17:21:22;38.90;1.00
17128;DHT22;8679;50.842;4.322;2023-05-31T17:23:47;38.70;1.00
17128;DHT22;8679;50.842;4.322;2023-05-31T17:26:14;39.00;1.00
17128;DHT22;8679;50.842;4.322;2023-05-31T17:28:41;38.90;1.00
17128;DHT22;8679;50.842;4.322;2023-05-31T17:31:08;38.90;1.00
17128;DHT22;8679;50.842;4.322;2023-05-31T17:33:33;39.00;1.00
17128;DHT22;8679;50.842;4.322;2023-05-31T17:35:59;39.20;1.00
17128;DHT22;8679;50.842;4.322;2023-05-31T17:38:25;39.00;1.00
17128;DHT22;8679;50.842;4.322;2023-05-31T17:40:51;38.90;1.00
17128;DHT22;8679;50.842;4.322;2023-05-31T17:43:16;38.70;1.00
17128;DHT22;8679;50.842;4.322;2023-05-31T17:45:42;38.30;1.00